sensor_id;sensor_type;location;lat;lon;timestamp;temperature;humidity
47310;DHT22;33046;52.270;6.832;2023-08-07T00:00:36;17.80;99.90
47310;DHT22;33046;52.270;6.832;2023-08-07T00:02:43;17.70;99.90
47310;DHT22;33046;52.270;6.832;2023-08-07T00:04:50;17.80;99.90
47310;DHT22;33046;52.270;6.832;2023-08-07T00:06:57;17.80;99.90
47310;DHT22;33046;52.270;6.832;2023-08-07T00:09:04;17.80;99.90
47310;DHT22;33046;52.270;6.832;2023-08-07T00:11:11;17.80;99.90
47310;DHT22;33046;52.270;6.832;2023-08-07T00:13:19;17.70;99.90
47310;DHT22;33046;52.270;6.832;2023-08-07T00:15:26;17.80;99.90
47310;DHT22;33046;52.270;6.832;2023-08-07T00:17:32;17.80;99.90
47310;DHT22;33046;52.270;6.832;2023-08-07T00:19:39;17.70;99.90
47310;DHT22;33046;52.270;6.832;2023-08-07T00:21:46;17.70;99.90
47310;DHT22;33046;52.270;6.832;2023-08-07T00:23:53;17.70;99.90
47310;DHT22;33046;52.270;6.832;2023-08-07T00:26:00;17.70;99.90
47310;DHT22;33046;52.270;6.832;2023-08-07T00:28:07;17.70;99.90
47310;DHT22;33046;52.270;6.832;2023-08-07T00:30:15;17.60;99.90
47310;DHT22;33046;52.270;6.832;2023-08-07T00:32:22;17.60;99.90
47310;DHT22;33046;52.270;6.832;2023-08-07T00:34:29;17.60;99.90
47310;DHT22;33046;52.270;6.832;2023-08-07T00:36:36;17.70;99.90
47310;DHT22;33046;52.270;6.832;2023-08-07T00:38:43;17.70;99.90
47310;DHT22;33046;52.270;6.832;2023-08-07T00:40:49;17.70;99.90
47310;DHT22;33046;52.270;6.832;2023-08-07T00:42:56;17.70;99.90
47310;DHT22;33046;52.270;6.832;2023-08-07T00:45:04;17.70;99.90
47310;DHT22;33046;52.270;6.832;2023-08-07T00:47:12;17.60;99.90
47310;DHT22;33046;52.270;6.832;2023-08-07T00:49:20;17.70;99.90
47310;DHT22;33046;52.270;6.832;2023-08-07T00:51:27;17.70;99.90
47310;DHT22;33046;52.270;6.832;2023-08-07T00:53:37;17.80;99.90
47310;DHT22;33046;52.270;6.832;2023-08-07T00:55:44;17.70;99.90
47310;DHT22;33046;52.270;6.832;2023-08-07T00:57:51;17.70;99.90
47310;DHT22;33046;52.270;6.832;2023-08-07T00:59:59;17.70;99.90
47310;DHT22;33046;52.270;6.832;2023-08-07T01:02:06;17.70;99.90
47310;DHT22;33046;52.270;6.832;2023-08-07T01:04:15;17.70;99.90
47310;DHT22;33046;52.270;6.832;2023-08-07T01:06:21;17.70;99.90
47310;DHT22;33046;52.270;6.832;2023-08-07T01:08:29;17.70;99.90
47310;DHT22;33046;52.270;6.832;2023-08-07T01:10:44;17.70;99.90
47310;DHT22;33046;52.270;6.832;2023-08-07T01:12:59;17.70;99.90
47310;DHT22;33046;52.270;6.832;2023-08-07T01:15:13;17.70;99.90
47310;DHT22;33046;52.270;6.832;2023-08-07T01:17:22;17.70;99.90
47310;DHT22;33046;52.270;6.832;2023-08-07T01:19:31;17.80;99.90
47310;DHT22;33046;52.270;6.832;2023-08-07T01:21:45;17.70;99.90
47310;DHT22;33046;52.270;6.832;2023-08-07T01:23:52;17.70;99.90
47310;DHT22;33046;52.270;6.832;2023-08-07T01:25:59;17.70;99.90
47310;DHT22;33046;52.270;6.832;2023-08-07T01:28:11;17.60;99.90
47310;DHT22;33046;52.270;6.832;2023-08-07T01:30:25;17.60;99.90
47310;DHT22;33046;52.270;6.832;2023-08-07T01:32:35;17.60;99.90
47310;DHT22;33046;52.270;6.832;2023-08-07T01:34:47;17.60;99.90
47310;DHT22;33046;52.270;6.832;2023-08-07T01:36:58;17.60;99.90
47310;DHT22;33046;52.270;6.832;2023-08-07T01:39:06;17.60;99.90
47310;DHT22;33046;52.270;6.832;2023-08-07T01:41:13;17.70;99.90
47310;DHT22;33046;52.270;6.832;2023-08-07T01:43:20;17.60;99.90
47310;DHT22;33046;52.270;6.832;2023-08-07T01:45:28;17.70;99.90
47310;DHT22;33046;52.270;6.832;2023-08-07T01:47:35;17.70;99.90
47310;DHT22;33046;52.270;6.832;2023-08-07T01:49:42;17.70;99.90
47310;DHT22;33046;52.270;6.832;2023-08-07T01:51:49;17.60;99.90
47310;DHT22;33046;52.270;6.832;2023-08-07T01:53:57;17.70;99.90
47310;DHT22;33046;52.270;6.832;2023-08-07T01:56:04;17.70;99.90
47310;DHT22;33046;52.270;6.832;2023-08-07T01:58:11;17.60;99.90
47310;DHT22;33046;52.270;6.832;2023-08-07T02:00:18;17.60;99.90
47310;DHT22;33046;52.270;6.832;2023-08-07T02:02:25;17.60;99.90
47310;DHT22;33046;52.270;6.832;2023-08-07T02:04:32;17.60;99.90
47310;DHT22;33046;52.270;6.832;2023-08-07T02:06:39;17.70;99.90
47310;DHT22;33046;52.270;6.832;2023-08-07T02:08:46;17.70;99.90
47310;DHT22;33046;52.270;6.832;2023-08-07T02:10:56;17.70;99.90
47310;DHT22;33046;52.270;6.832;2023-08-07T02:13:03;17.70;99.90
47310;DHT22;33046;52.270;6.832;2023-08-07T02:15:12;17.70;99.90
47310;DHT22;33046;52.270;6.832;2023-08-07T02:17:20;17.60;99.90
47310;DHT22;33046;52.270;6.832;2023-08-07T02:19:27;17.70;99.90
47310;DHT22;33046;52.270;6.832;2023-08-07T02:21:34;17.60;99.90
47310;DHT22;33046;52.270;6.832;2023-08-07T02:23:41;17.60;99.90
47310;DHT22;33046;52.270;6.832;2023-08-07T02:25:48;17.50;99.90
47310;DHT22;33046;52.270;6.832;2023-08-07T02:27:57;17.60;99.90
47310;DHT22;33046;52.270;6.832;2023-08-07T02:30:04;17.50;99.90
47310;DHT22;33046;52.270;6.832;2023-08-07T02:32:11;17.50;99.90
47310;DHT22;33046;52.270;6.832;2023-08-07T02:34:18;17.50;99.90
47310;DHT22;33046;52.270;6.832;2023-08-07T02:36:25;17.40;99.90
47310;DHT22;33046;52.270;6.832;2023-08-07T02:38:32;17.50;99.90
47310;DHT22;33046;52.270;6.832;2023-08-07T02:40:41;17.50;99.90
47310;DHT22;33046;52.270;6.832;2023-08-07T02:42:48;17.50;99.90
47310;DHT22;33046;52.270;6.832;2023-08-07T02:44:56;17.50;99.90
47310;DHT22;33046;52.270;6.832;2023-08-07T02:47:03;17.50;99.90
47310;DHT22;33046;52.270;6.832;2023-08-07T02:49:10;17.50;99.90
47310;DHT22;33046;52.270;6.832;2023-08-07T02:51:17;17.50;99.90
47310;DHT22;33046;52.270;6.832;2023-08-07T02:53:24;17.50;99.90
47310;DHT22;33046;52.270;6.832;2023-08-07T02:55:31;17.40;99.90
47310;DHT22;33046;52.270;6.832;2023-08-07T02:57:38;17.40;99.90
47310;DHT22;33046;52.270;6.832;2023-08-07T02:59:45;17.40;99.90
47310;DHT22;33046;52.270;6.832;2023-08-07T03:01:53;17.30;99.90
47310;DHT22;33046;52.270;6.832;2023-08-07T03:04:00;17.40;99.90
47310;DHT22;33046;52.270;6.832;2023-08-07T03:06:07;17.30;99.90
47310;DHT22;33046;52.270;6.832;2023-08-07T03:08:13;17.30;99.90
47310;DHT22;33046;52.270;6.832;2023-08-07T03:10:20;17.40;99.90
47310;DHT22;33046;52.270;6.832;2023-08-07T03:12:27;17.40;99.90
47310;DHT22;33046;52.270;6.832;2023-08-07T03:14:34;17.40;99.90
47310;DHT22;33046;52.270;6.832;2023-08-07T03:16:41;17.30;99.90
47310;DHT22;33046;52.270;6.832;2023-08-07T03:18:50;17.40;99.90
47310;DHT22;33046;52.270;6.832;2023-08-07T03:20:57;17.40;99.90
47310;DHT22;33046;52.270;6.832;2023-08-07T03:23:04;17.40;99.90
47310;DHT22;33046;52.270;6.832;2023-08-07T03:25:11;17.40;99.90
47310;DHT22;33046;52.270;6.832;2023-08-07T03:27:17;17.40;99.90
47310;DHT22;33046;52.270;6.832;2023-08-07T03:29:26;17.40;99.90
47310;DHT22;33046;52.270;6.832;2023-08-07T03:31:33;17.30;99.90
47310;DHT22;33046;52.270;6.832;2023-08-07T03:33:41;17.30;99.90
47310;DHT22;33046;52.270;6.832;2023-08-07T03:35:49;17.30;99.90
47310;DHT22;33046;52.270;6.832;2023-08-07T03:37:56;17.20;99.90
47310;DHT22;33046;52.270;6.832;2023-08-07T03:40:05;17.20;99.90
47310;DHT22;33046;52.270;6.832;2023-08-07T03:42:12;17.30;99.90
47310;DHT22;33046;52.270;6.832;2023-08-07T03:44:19;17.30;99.90
47310;DHT22;33046;52.270;6.832;2023-08-07T03:46:26;17.20;99.90
47310;DHT22;33046;52.270;6.832;2023-08-07T03:48:32;17.30;99.90
47310;DHT22;33046;52.270;6.832;2023-08-07T03:50:41;17.30;99.90
47310;DHT22;33046;52.270;6.832;2023-08-07T03:52:50;17.30;99.90
47310;DHT22;33046;52.270;6.832;2023-08-07T03:54:58;17.30;99.90
47310;DHT22;33046;52.270;6.832;2023-08-07T03:57:05;17.30;99.90
47310;DHT22;33046;52.270;6.832;2023-08-07T03:59:12;17.20;99.90
47310;DHT22;33046;52.270;6.832;2023-08-07T04:01:19;17.20;99.90
47310;DHT22;33046;52.270;6.832;2023-08-07T04:03:26;17.20;99.90
47310;DHT22;33046;52.270;6.832;2023-08-07T04:05:33;17.30;99.90
47310;DHT22;33046;52.270;6.832;2023-08-07T04:07:40;17.20;99.90
47310;DHT22;33046;52.270;6.832;2023-08-07T04:09:48;17.20;99.90
47310;DHT22;33046;52.270;6.832;2023-08-07T04:11:55;17.20;99.90
47310;DHT22;33046;52.270;6.832;2023-08-07T04:14:02;17.30;99.90
47310;DHT22;33046;52.270;6.832;2023-08-07T04:16:09;17.30;99.90
47310;DHT22;33046;52.270;6.832;2023-08-07T04:18:16;17.30;99.90
47310;DHT22;33046;52.270;6.832;2023-08-07T04:20:23;17.30;99.90
47310;DHT22;33046;52.270;6.832;2023-08-07T04:22:30;17.30;99.90
47310;DHT22;33046;52.270;6.832;2023-08-07T04:24:36;17.30;99.90
47310;DHT22;33046;52.270;6.832;2023-08-07T04:26:45;17.30;99.90
47310;DHT22;33046;52.270;6.832;2023-08-07T04:28:52;17.30;99.90
47310;DHT22;33046;52.270;6.832;2023-08-07T04:30:58;17.30;99.90
47310;DHT22;33046;52.270;6.832;2023-08-07T04:33:05;17.30;99.90
47310;DHT22;33046;52.270;6.832;2023-08-07T04:35:12;17.30;99.90
47310;DHT22;33046;52.270;6.832;2023-08-07T04:37:19;17.30;99.90
47310;DHT22;33046;52.270;6.832;2023-08-07T04:39:26;17.30;99.90
47310;DHT22;33046;52.270;6.832;2023-08-07T04:41:33;17.30;99.90
47310;DHT22;33046;52.270;6.832;2023-08-07T04:43:41;17.30;99.90
47310;DHT22;33046;52.270;6.832;2023-08-07T04:45:48;17.40;99.90
47310;DHT22;33046;52.270;6.832;2023-08-07T04:47:55;17.40;99.90
47310;DHT22;33046;52.270;6.832;2023-08-07T04:50:02;17.30;99.90
47310;DHT22;33046;52.270;6.832;2023-08-07T04:52:09;17.40;99.90
47310;DHT22;33046;52.270;6.832;2023-08-07T04:54:22;17.30;99.90
47310;DHT22;33046;52.270;6.832;2023-08-07T04:56:29;17.30;99.90
47310;DHT22;33046;52.270;6.832;2023-08-07T04:58:36;17.40;99.90
47310;DHT22;33046;52.270;6.832;2023-08-07T05:00:44;17.40;99.90
47310;DHT22;33046;52.270;6.832;2023-08-07T05:02:51;17.40;99.90
47310;DHT22;33046;52.270;6.832;2023-08-07T05:04:58;17.40;99.90
47310;DHT22;33046;52.270;6.832;2023-08-07T05:07:05;17.40;99.90
47310;DHT22;33046;52.270;6.832;2023-08-07T05:09:12;17.50;99.90
47310;DHT22;33046;52.270;6.832;2023-08-07T05:11:19;17.40;99.90
47310;DHT22;33046;52.270;6.832;2023-08-07T05:13:26;17.40;99.90
47310;DHT22;33046;52.270;6.832;2023-08-07T05:15:33;17.50;99.90
47310;DHT22;33046;52.270;6.832;2023-08-07T05:17:41;17.40;99.90
47310;DHT22;33046;52.270;6.832;2023-08-07T05:19:48;17.40;99.90
47310;DHT22;33046;52.270;6.832;2023-08-07T05:21:55;17.50;99.90
47310;DHT22;33046;52.270;6.832;2023-08-07T05:24:02;17.50;99.90
47310;DHT22;33046;52.270;6.832;2023-08-07T05:26:09;17.50;99.90
47310;DHT22;33046;52.270;6.832;2023-08-07T05:28:17;17.50;99.90
47310;DHT22;33046;52.270;6.832;2023-08-07T05:30:24;17.50;99.90
47310;DHT22;33046;52.270;6.832;2023-08-07T05:32:31;17.50;99.90
47310;DHT22;33046;52.270;6.832;2023-08-07T05:34:39;17.40;99.90
47310;DHT22;33046;52.270;6.832;2023-08-07T05:36:46;17.40;99.90
47310;DHT22;33046;52.270;6.832;2023-08-07T05:38:53;17.50;99.90
47310;DHT22;33046;52.270;6.832;2023-08-07T05:41:00;17.50;99.90
47310;DHT22;33046;52.270;6.832;2023-08-07T05:43:06;17.40;99.90
47310;DHT22;33046;52.270;6.832;2023-08-07T05:45:13;17.40;99.90
47310;DHT22;33046;52.270;6.832;2023-08-07T05:47:20;17.50;99.90
47310;DHT22;33046;52.270;6.832;2023-08-07T05:49:27;17.50;99.90
47310;DHT22;33046;52.270;6.832;2023-08-07T05:51:35;17.50;99.90
47310;DHT22;33046;52.270;6.832;2023-08-07T05:53:42;17.50;99.90
47310;DHT22;33046;52.270;6.832;2023-08-07T05:55:49;17.50;99.90
47310;DHT22;33046;52.270;6.832;2023-08-07T05:57:56;17.50;99.90
47310;DHT22;33046;52.270;6.832;2023-08-07T06:00:04;17.60;99.90
47310;DHT22;33046;52.270;6.832;2023-08-07T06:02:17;17.60;99.90
47310;DHT22;33046;52.270;6.832;2023-08-07T06:04:24;17.70;99.90
47310;DHT22;33046;52.270;6.832;2023-08-07T06:06:31;17.70;99.90
47310;DHT22;33046;52.270;6.832;2023-08-07T06:08:39;17.70;99.90
47310;DHT22;33046;52.270;6.832;2023-08-07T06:10:46;17.70;99.90
47310;DHT22;33046;52.270;6.832;2023-08-07T06:12:53;17.80;99.90
47310;DHT22;33046;52.270;6.832;2023-08-07T06:15:00;17.80;99.90
47310;DHT22;33046;52.270;6.832;2023-08-07T06:17:07;17.80;99.90
47310;DHT22;33046;52.270;6.832;2023-08-07T06:19:13;17.90;99.90
47310;DHT22;33046;52.270;6.832;2023-08-07T06:21:26;17.80;99.90
47310;DHT22;33046;52.270;6.832;2023-08-07T06:23:33;17.80;99.90
47310;DHT22;33046;52.270;6.832;2023-08-07T06:25:41;17.80;99.90
47310;DHT22;33046;52.270;6.832;2023-08-07T06:27:50;17.80;99.90
47310;DHT22;33046;52.270;6.832;2023-08-07T06:29:57;17.90;99.90
47310;DHT22;33046;52.270;6.832;2023-08-07T06:32:05;17.80;99.90
47310;DHT22;33046;52.270;6.832;2023-08-07T06:34:12;17.80;99.90
47310;DHT22;33046;52.270;6.832;2023-08-07T06:36:19;17.80;99.90
47310;DHT22;33046;52.270;6.832;2023-08-07T06:38:26;17.80;99.90
47310;DHT22;33046;52.270;6.832;2023-08-07T06:40:35;17.80;99.90
47310;DHT22;33046;52.270;6.832;2023-08-07T06:42:43;17.80;99.90
47310;DHT22;33046;52.270;6.832;2023-08-07T06:44:50;17.80;99.90
47310;DHT22;33046;52.270;6.832;2023-08-07T06:46:57;17.80;99.90
47310;DHT22;33046;52.270;6.832;2023-08-07T06:49:04;17.90;99.90
47310;DHT22;33046;52.270;6.832;2023-08-07T06:51:11;17.90;99.90
47310;DHT22;33046;52.270;6.832;2023-08-07T06:53:18;17.90;99.90
47310;DHT22;33046;52.270;6.832;2023-08-07T06:55:26;17.90;99.90
47310;DHT22;33046;52.270;6.832;2023-08-07T06:57:32;18.20;99.90
47310;DHT22;33046;52.270;6.832;2023-08-07T06:59:41;18.20;99.90
47310;DHT22;33046;52.270;6.832;2023-08-07T07:01:47;18.30;99.90
47310;DHT22;33046;52.270;6.832;2023-08-07T07:03:54;18.20;99.90
47310;DHT22;33046;52.270;6.832;2023-08-07T07:06:01;18.30;99.90
47310;DHT22;33046;52.270;6.832;2023-08-07T07:08:08;18.30;99.90
47310;DHT22;33046;52.270;6.832;2023-08-07T07:10:15;18.30;99.90
47310;DHT22;33046;52.270;6.832;2023-08-07T07:12:22;18.40;99.90
47310;DHT22;33046;52.270;6.832;2023-08-07T07:14:29;18.50;99.90
47310;DHT22;33046;52.270;6.832;2023-08-07T07:16:37;18.60;99.90
47310;DHT22;33046;52.270;6.832;2023-08-07T07:18:44;18.60;99.90
47310;DHT22;33046;52.270;6.832;2023-08-07T07:20:56;18.70;99.90
47310;DHT22;33046;52.270;6.832;2023-08-07T07:23:05;18.70;99.90
47310;DHT22;33046;52.270;6.832;2023-08-07T07:25:12;18.60;99.90
47310;DHT22;33046;52.270;6.832;2023-08-07T07:27:19;18.60;99.90
47310;DHT22;33046;52.270;6.832;2023-08-07T07:29:27;18.50;99.90
47310;DHT22;33046;52.270;6.832;2023-08-07T07:31:34;18.50;99.90
47310;DHT22;33046;52.270;6.832;2023-08-07T07:33:42;18.50;99.90
47310;DHT22;33046;52.270;6.832;2023-08-07T07:35:49;18.50;99.90
47310;DHT22;33046;52.270;6.832;2023-08-07T07:37:56;18.70;99.90
47310;DHT22;33046;52.270;6.832;2023-08-07T07:40:03;18.80;99.90
47310;DHT22;33046;52.270;6.832;2023-08-07T07:42:10;18.90;99.90
47310;DHT22;33046;52.270;6.832;2023-08-07T07:44:17;19.10;99.90
47310;DHT22;33046;52.270;6.832;2023-08-07T07:46:25;19.10;99.90
47310;DHT22;33046;52.270;6.832;2023-08-07T07:48:32;19.10;99.90
47310;DHT22;33046;52.270;6.832;2023-08-07T07:50:41;19.20;99.90
47310;DHT22;33046;52.270;6.832;2023-08-07T07:52:48;19.20;99.90
47310;DHT22;33046;52.270;6.832;2023-08-07T07:54:54;19.40;99.90
47310;DHT22;33046;52.270;6.832;2023-08-07T07:57:01;19.50;99.90
47310;DHT22;33046;52.270;6.832;2023-08-07T07:59:08;19.50;99.90
47310;DHT22;33046;52.270;6.832;2023-08-07T08:01:15;19.50;99.90
47310;DHT22;33046;52.270;6.832;2023-08-07T08:03:22;19.60;99.90
47310;DHT22;33046;52.270;6.832;2023-08-07T08:05:29;19.60;99.90
47310;DHT22;33046;52.270;6.832;2023-08-07T08:07:37;19.70;99.90
47310;DHT22;33046;52.270;6.832;2023-08-07T08:09:45;19.70;99.50
47310;DHT22;33046;52.270;6.832;2023-08-07T08:11:51;19.70;99.40
47310;DHT22;33046;52.270;6.832;2023-08-07T08:13:58;19.70;99.10
47310;DHT22;33046;52.270;6.832;2023-08-07T08:16:05;19.60;99.30
47310;DHT22;33046;52.270;6.832;2023-08-07T08:18:12;19.60;99.10
47310;DHT22;33046;52.270;6.832;2023-08-07T08:20:19;19.60;98.50
47310;DHT22;33046;52.270;6.832;2023-08-07T08:22:26;19.50;98.80
47310;DHT22;33046;52.270;6.832;2023-08-07T08:24:34;19.50;98.60
47310;DHT22;33046;52.270;6.832;2023-08-07T08:26:41;19.50;98.90
47310;DHT22;33046;52.270;6.832;2023-08-07T08:28:48;19.50;98.90
47310;DHT22;33046;52.270;6.832;2023-08-07T08:30:54;19.60;98.20
47310;DHT22;33046;52.270;6.832;2023-08-07T08:33:01;19.60;98.60
47310;DHT22;33046;52.270;6.832;2023-08-07T08:35:08;19.60;98.30
47310;DHT22;33046;52.270;6.832;2023-08-07T08:37:15;19.70;97.80
47310;DHT22;33046;52.270;6.832;2023-08-07T08:39:22;19.60;97.20
47310;DHT22;33046;52.270;6.832;2023-08-07T08:41:31;19.50;97.90
47310;DHT22;33046;52.270;6.832;2023-08-07T08:43:40;19.30;96.90
47310;DHT22;33046;52.270;6.832;2023-08-07T08:45:49;19.30;97.50
47310;DHT22;33046;52.270;6.832;2023-08-07T08:48:01;19.30;97.30
47310;DHT22;33046;52.270;6.832;2023-08-07T08:50:09;19.30;96.50
47310;DHT22;33046;52.270;6.832;2023-08-07T08:52:17;19.20;96.40
47310;DHT22;33046;52.270;6.832;2023-08-07T08:54:25;19.20;97.40
47310;DHT22;33046;52.270;6.832;2023-08-07T08:56:34;19.30;97.60
47310;DHT22;33046;52.270;6.832;2023-08-07T08:58:41;19.40;97.10
47310;DHT22;33046;52.270;6.832;2023-08-07T09:00:49;19.40;97.70
47310;DHT22;33046;52.270;6.832;2023-08-07T09:02:57;19.40;97.40
47310;DHT22;33046;52.270;6.832;2023-08-07T09:05:05;19.40;97.40
47310;DHT22;33046;52.270;6.832;2023-08-07T09:07:14;19.40;97.20
47310;DHT22;33046;52.270;6.832;2023-08-07T09:09:21;19.40;97.50
47310;DHT22;33046;52.270;6.832;2023-08-07T09:11:29;19.40;97.80
47310;DHT22;33046;52.270;6.832;2023-08-07T09:13:39;19.50;97.50
47310;DHT22;33046;52.270;6.832;2023-08-07T09:15:47;19.40;97.10
47310;DHT22;33046;52.270;6.832;2023-08-07T09:17:55;19.50;96.60
47310;DHT22;33046;52.270;6.832;2023-08-07T09:20:02;19.60;96.90
47310;DHT22;33046;52.270;6.832;2023-08-07T09:22:09;19.70;96.30
47310;DHT22;33046;52.270;6.832;2023-08-07T09:24:16;19.80;96.50
47310;DHT22;33046;52.270;6.832;2023-08-07T09:26:23;19.80;95.90
47310;DHT22;33046;52.270;6.832;2023-08-07T09:28:32;19.80;95.70
47310;DHT22;33046;52.270;6.832;2023-08-07T09:30:41;19.70;96.10
47310;DHT22;33046;52.270;6.832;2023-08-07T09:32:48;19.60;95.70
47310;DHT22;33046;52.270;6.832;2023-08-07T09:34:56;19.50;97.40
47310;DHT22;33046;52.270;6.832;2023-08-07T09:37:03;19.40;97.70
47310;DHT22;33046;52.270;6.832;2023-08-07T09:39:10;19.40;97.80
47310;DHT22;33046;52.270;6.832;2023-08-07T09:41:18;19.30;97.80
47310;DHT22;33046;52.270;6.832;2023-08-07T09:43:25;19.30;98.30
47310;DHT22;33046;52.270;6.832;2023-08-07T09:45:32;19.40;98.30
47310;DHT22;33046;52.270;6.832;2023-08-07T09:47:40;19.40;98.30
47310;DHT22;33046;52.270;6.832;2023-08-07T09:49:48;19.40;98.90
47310;DHT22;33046;52.270;6.832;2023-08-07T09:51:54;19.50;98.30
47310;DHT22;33046;52.270;6.832;2023-08-07T09:54:01;19.50;98.90
47310;DHT22;33046;52.270;6.832;2023-08-07T09:56:08;19.60;97.90
47310;DHT22;33046;52.270;6.832;2023-08-07T09:58:15;19.40;96.60
47310;DHT22;33046;52.270;6.832;2023-08-07T10:00:22;19.30;94.40
47310;DHT22;33046;52.270;6.832;2023-08-07T10:02:29;19.30;94.80
47310;DHT22;33046;52.270;6.832;2023-08-07T10:04:38;19.30;94.40
47310;DHT22;33046;52.270;6.832;2023-08-07T10:06:46;19.30;94.20
47310;DHT22;33046;52.270;6.832;2023-08-07T10:08:54;19.30;92.90
47310;DHT22;33046;52.270;6.832;2023-08-07T10:11:01;19.30;92.90
47310;DHT22;33046;52.270;6.832;2023-08-07T10:13:09;19.40;93.20
47310;DHT22;33046;52.270;6.832;2023-08-07T10:15:19;19.50;92.70
47310;DHT22;33046;52.270;6.832;2023-08-07T10:17:28;19.50;91.70
47310;DHT22;33046;52.270;6.832;2023-08-07T10:19:35;19.50;92.00
47310;DHT22;33046;52.270;6.832;2023-08-07T10:21:43;19.50;92.70
47310;DHT22;33046;52.270;6.832;2023-08-07T10:23:53;19.50;91.80
47310;DHT22;33046;52.270;6.832;2023-08-07T10:26:02;19.50;92.10
47310;DHT22;33046;52.270;6.832;2023-08-07T10:28:13;19.50;92.70
47310;DHT22;33046;52.270;6.832;2023-08-07T10:30:22;19.50;93.20
47310;DHT22;33046;52.270;6.832;2023-08-07T10:32:30;19.50;91.90
47310;DHT22;33046;52.270;6.832;2023-08-07T10:34:38;19.60;91.90
47310;DHT22;33046;52.270;6.832;2023-08-07T10:36:46;19.60;91.70
47310;DHT22;33046;52.270;6.832;2023-08-07T10:39:06;19.60;92.10
47310;DHT22;33046;52.270;6.832;2023-08-07T10:41:15;19.80;91.20
47310;DHT22;33046;52.270;6.832;2023-08-07T10:43:24;19.80;89.70
47310;DHT22;33046;52.270;6.832;2023-08-07T10:45:34;19.90;90.40
47310;DHT22;33046;52.270;6.832;2023-08-07T10:47:42;20.00;89.80
47310;DHT22;33046;52.270;6.832;2023-08-07T10:49:49;20.00;86.20
47310;DHT22;33046;52.270;6.832;2023-08-07T10:51:57;20.00;86.80
47310;DHT22;33046;52.270;6.832;2023-08-07T10:54:04;19.90;87.20
47310;DHT22;33046;52.270;6.832;2023-08-07T10:56:16;19.90;89.00
47310;DHT22;33046;52.270;6.832;2023-08-07T10:58:24;19.90;88.30
47310;DHT22;33046;52.270;6.832;2023-08-07T11:00:31;19.90;88.90
47310;DHT22;33046;52.270;6.832;2023-08-07T11:02:41;19.90;88.90
47310;DHT22;33046;52.270;6.832;2023-08-07T11:04:48;20.00;90.30
47310;DHT22;33046;52.270;6.832;2023-08-07T11:06:56;20.10;90.60
47310;DHT22;33046;52.270;6.832;2023-08-07T11:09:05;20.20;88.40
47310;DHT22;33046;52.270;6.832;2023-08-07T11:11:12;20.10;90.00
47310;DHT22;33046;52.270;6.832;2023-08-07T11:13:19;20.10;89.40
47310;DHT22;33046;52.270;6.832;2023-08-07T11:15:26;19.90;89.50
47310;DHT22;33046;52.270;6.832;2023-08-07T11:17:33;20.00;90.10
47310;DHT22;33046;52.270;6.832;2023-08-07T11:19:40;20.20;87.80
47310;DHT22;33046;52.270;6.832;2023-08-07T11:21:48;20.10;89.00
47310;DHT22;33046;52.270;6.832;2023-08-07T11:23:56;20.20;87.70
47310;DHT22;33046;52.270;6.832;2023-08-07T11:26:03;20.20;87.70
47310;DHT22;33046;52.270;6.832;2023-08-07T11:28:10;20.30;88.80
47310;DHT22;33046;52.270;6.832;2023-08-07T11:30:17;20.40;88.40
47310;DHT22;33046;52.270;6.832;2023-08-07T11:32:23;20.40;87.70
47310;DHT22;33046;52.270;6.832;2023-08-07T11:34:30;20.50;86.10
47310;DHT22;33046;52.270;6.832;2023-08-07T11:36:41;20.40;85.80
47310;DHT22;33046;52.270;6.832;2023-08-07T11:38:48;20.60;86.90
47310;DHT22;33046;52.270;6.832;2023-08-07T11:40:57;20.70;87.20
47310;DHT22;33046;52.270;6.832;2023-08-07T11:43:04;20.70;87.20
47310;DHT22;33046;52.270;6.832;2023-08-07T11:45:10;20.90;87.10
47310;DHT22;33046;52.270;6.832;2023-08-07T11:47:17;21.00;86.70
47310;DHT22;33046;52.270;6.832;2023-08-07T11:49:24;21.00;86.90
47310;DHT22;33046;52.270;6.832;2023-08-07T11:51:31;21.10;86.70
47310;DHT22;33046;52.270;6.832;2023-08-07T11:53:40;21.10;87.60
47310;DHT22;33046;52.270;6.832;2023-08-07T11:55:51;21.20;86.10
47310;DHT22;33046;52.270;6.832;2023-08-07T11:58:00;21.10;84.20
47310;DHT22;33046;52.270;6.832;2023-08-07T12:00:10;21.20;84.40
47310;DHT22;33046;52.270;6.832;2023-08-07T12:02:17;21.20;84.60
47310;DHT22;33046;52.270;6.832;2023-08-07T12:04:31;21.20;85.10
47310;DHT22;33046;52.270;6.832;2023-08-07T12:06:53;21.10;83.70
47310;DHT22;33046;52.270;6.832;2023-08-07T12:09:00;21.10;85.80
47310;DHT22;33046;52.270;6.832;2023-08-07T12:11:08;21.00;85.00
47310;DHT22;33046;52.270;6.832;2023-08-07T12:13:20;21.00;85.60
47310;DHT22;33046;52.270;6.832;2023-08-07T12:15:28;20.90;86.40
47310;DHT22;33046;52.270;6.832;2023-08-07T12:17:35;20.90;85.90
47310;DHT22;33046;52.270;6.832;2023-08-07T12:19:42;20.80;85.20
47310;DHT22;33046;52.270;6.832;2023-08-07T12:21:49;20.70;86.30
47310;DHT22;33046;52.270;6.832;2023-08-07T12:23:56;20.60;87.40
47310;DHT22;33046;52.270;6.832;2023-08-07T12:26:04;20.60;89.10
47310;DHT22;33046;52.270;6.832;2023-08-07T12:28:11;20.60;88.20
47310;DHT22;33046;52.270;6.832;2023-08-07T12:30:19;20.60;88.30
47310;DHT22;33046;52.270;6.832;2023-08-07T12:32:26;20.50;87.70
47310;DHT22;33046;52.270;6.832;2023-08-07T12:34:33;20.60;89.40
47310;DHT22;33046;52.270;6.832;2023-08-07T12:36:41;20.60;88.30
47310;DHT22;33046;52.270;6.832;2023-08-07T12:38:48;20.70;89.00
47310;DHT22;33046;52.270;6.832;2023-08-07T12:40:55;20.70;88.80
47310;DHT22;33046;52.270;6.832;2023-08-07T12:43:02;20.70;86.00
47310;DHT22;33046;52.270;6.832;2023-08-07T12:45:10;20.80;85.90
47310;DHT22;33046;52.270;6.832;2023-08-07T12:47:18;20.80;84.50
47310;DHT22;33046;52.270;6.832;2023-08-07T12:49:25;20.70;83.50
47310;DHT22;33046;52.270;6.832;2023-08-07T12:51:32;20.80;85.00
47310;DHT22;33046;52.270;6.832;2023-08-07T12:53:39;20.80;83.50
47310;DHT22;33046;52.270;6.832;2023-08-07T12:55:45;20.90;81.40
47310;DHT22;33046;52.270;6.832;2023-08-07T12:57:53;20.90;81.00
47310;DHT22;33046;52.270;6.832;2023-08-07T13:00:00;20.80;80.00
47310;DHT22;33046;52.270;6.832;2023-08-07T13:02:07;20.90;81.10
47310;DHT22;33046;52.270;6.832;2023-08-07T13:04:15;20.90;80.50
47310;DHT22;33046;52.270;6.832;2023-08-07T13:06:22;21.00;81.90
47310;DHT22;33046;52.270;6.832;2023-08-07T13:08:29;21.10;81.80
47310;DHT22;33046;52.270;6.832;2023-08-07T13:10:36;21.10;81.30
47310;DHT22;33046;52.270;6.832;2023-08-07T13:12:44;21.20;82.00
47310;DHT22;33046;52.270;6.832;2023-08-07T13:14:50;21.20;81.10
47310;DHT22;33046;52.270;6.832;2023-08-07T13:16:57;21.20;82.00
47310;DHT22;33046;52.270;6.832;2023-08-07T13:19:04;21.20;81.40
47310;DHT22;33046;52.270;6.832;2023-08-07T13:21:13;21.30;81.70
47310;DHT22;33046;52.270;6.832;2023-08-07T13:23:19;21.40;82.30
47310;DHT22;33046;52.270;6.832;2023-08-07T13:25:26;21.40;81.40